This is the latest recevied weather packets stored in our database for station/object SP9WPN-12. If no packets are shown the sender has not sent any weather packets the latest 1 day(s).
| Time | Temp. | Humidity | Pressure | Rain* | Wind** | Luminosity | Snow |
|---|---|---|---|---|---|---|---|
| 1778095829 | 19.44° C | 56% | 1006.3 hPa | - | - | - | - |
| 1778092841 | 20.56° C | 51% | 1005.8 hPa | - | - | - | - |
| 1778091646 | 21.11° C | 50% | 1005.5 hPa | - | - | - | - |
| 1778091048 | 21.67° C | 50% | 1005.5 hPa | - | - | - | - |
| 1778085669 | 23.33° C | 44% | 1005.2 hPa | - | - | - | - |
| 1778085071 | 23.33° C | 44% | 1005.4 hPa | - | - | - | - |
| 1778084473 | 23.89° C | 43% | 1005.5 hPa | - | - | - | - |
| 1778083875 | 23.89° C | 42% | 1005.5 hPa | - | - | - | - |
| 1778083278 | 24.44° C | 40% | 1005.4 hPa | - | - | - | - |
| 1778082083 | 25° C | 39% | 1005.4 hPa | - | - | - | - |
| 1778081486 | 25.56° C | 38% | 1005.5 hPa | - | - | - | - |
| 1778080291 | 25° C | 38% | 1005.5 hPa | - | - | - | - |
| 1778077302 | 26.11° C | 37% | 1005.9 hPa | - | - | - | - |
| 1778076106 | 25° C | 36% | 1006 hPa | - | - | - | - |
| 1778075509 | 26.67° C | 36% | 1005.9 hPa | - | - | - | - |
| 1778074911 | 26.67° C | 36% | 1005.8 hPa | - | - | - | - |
| 1778071324 | 27.78° C | 36% | 1006.3 hPa | - | - | - | - |
| 1778069531 | 26.11° C | 40% | 1006.5 hPa | - | - | - | - |
| 1778067140 | 24.44° C | 41% | 1006.5 hPa | - | - | - | - |
| 1778066542 | 26.11° C | 41% | 1006.5 hPa | - | - | - | - |
| 1778065943 | 25.56° C | 42% | 1006.7 hPa | - | - | - | - |
| 1778065345 | 26.11° C | 42% | 1006.7 hPa | - | - | - | - |
| 1778064747 | 25° C | 43% | 1006.8 hPa | - | - | - | - |
| 1778062953 | 24.44° C | 44% | 1007 hPa | - | - | - | - |
| 1778062355 | 25° C | 42% | 1007 hPa | - | - | - | - |
* Rain since midnight (hover to see other rain measurements)
** Current wind speed in m/s (hover to see current wind gust speed)